sensor_id;sensor_type;location;lat;lon;timestamp;temperature;humidity
18281;DHT22;9266;51.132;17.062;2023-02-01T00:06:24;2.60;1.00
18281;DHT22;9266;51.132;17.062;2023-02-01T00:13:48;3.80;1.00
18281;DHT22;9266;51.132;17.062;2023-02-01T00:16:17;2.60;1.00
18281;DHT22;9266;51.132;17.062;2023-02-01T00:18:47;2.60;1.00
18281;DHT22;9266;51.132;17.062;2023-02-01T00:21:17;2.60;1.00
18281;DHT22;9266;51.132;17.062;2023-02-01T00:26:15;2.70;1.00
18281;DHT22;9266;51.132;17.062;2023-02-01T00:36:07;2.80;1.00
18281;DHT22;9266;51.132;17.062;2023-02-01T00:38:37;2.80;1.00
18281;DHT22;9266;51.132;17.062;2023-02-01T00:43:33;3.00;1.00
18281;DHT22;9266;51.132;17.062;2023-02-01T00:48:28;3.10;1.00
18281;DHT22;9266;51.132;17.062;2023-02-01T00:50:58;3.20;1.00
18281;DHT22;9266;51.132;17.062;2023-02-01T00:53:27;3.10;1.00
18281;DHT22;9266;51.132;17.062;2023-02-01T00:55:54;3.30;1.00
18281;DHT22;9266;51.132;17.062;2023-02-01T01:00:49;3.20;99.90
18281;DHT22;9266;51.132;17.062;2023-02-01T01:03:16;3.20;99.90
18281;DHT22;9266;51.132;17.062;2023-02-01T01:05:47;3.20;1.00
18281;DHT22;9266;51.132;17.062;2023-02-01T01:10:43;3.20;99.90
18281;DHT22;9266;51.132;17.062;2023-02-01T01:15:38;3.30;99.90
18281;DHT22;9266;51.132;17.062;2023-02-01T01:18:06;3.30;1.00
18281;DHT22;9266;51.132;17.062;2023-02-01T01:20:34;3.30;1.00
18281;DHT22;9266;51.132;17.062;2023-02-01T01:30:25;3.60;1.00
18281;DHT22;9266;51.132;17.062;2023-02-01T01:40:14;3.10;99.90
18281;DHT22;9266;51.132;17.062;2023-02-01T01:42:43;3.20;1.00
18281;DHT22;9266;51.132;17.062;2023-02-01T01:45:21;3.30;1.00
18281;DHT22;9266;51.132;17.062;2023-02-01T01:47:52;3.40;1.00
18281;DHT22;9266;51.132;17.062;2023-02-01T01:50:23;3.30;1.00
18281;DHT22;9266;51.132;17.062;2023-02-01T01:52:52;3.30;1.00
18281;DHT22;9266;51.132;17.062;2023-02-01T01:55:22;3.20;99.90
18281;DHT22;9266;51.132;17.062;2023-02-01T01:57:55;3.00;99.90
18281;DHT22;9266;51.132;17.062;2023-02-01T02:00:24;2.90;1.00
18281;DHT22;9266;51.132;17.062;2023-02-01T02:02:56;3.00;99.90
18281;DHT22;9266;51.132;17.062;2023-02-01T02:07:53;3.10;99.90
18281;DHT22;9266;51.132;17.062;2023-02-01T02:10:20;3.10;1.00
18281;DHT22;9266;51.132;17.062;2023-02-01T02:15:37;3.20;99.90
18281;DHT22;9266;51.132;17.062;2023-02-01T02:18:12;3.20;99.90
18281;DHT22;9266;51.132;17.062;2023-02-01T02:20:58;3.20;1.00
18281;DHT22;9266;51.132;17.062;2023-02-01T02:24:06;3.40;1.00
18281;DHT22;9266;51.132;17.062;2023-02-01T02:26:45;2.90;99.90
18281;DHT22;9266;51.132;17.062;2023-02-01T02:29:49;3.40;38.40
18281;DHT22;9266;51.132;17.062;2023-02-01T02:35:41;3.50;1.00
18281;DHT22;9266;51.132;17.062;2023-02-01T02:38:18;3.60;1.00
18281;DHT22;9266;51.132;17.062;2023-02-01T02:40:54;3.70;1.00
18281;DHT22;9266;51.132;17.062;2023-02-01T02:43:28;3.30;31.30
18281;DHT22;9266;51.132;17.062;2023-02-01T02:46:21;3.70;1.00
18281;DHT22;9266;51.132;17.062;2023-02-01T02:49:12;3.70;1.00
18281;DHT22;9266;51.132;17.062;2023-02-01T02:51:45;3.70;1.00
18281;DHT22;9266;51.132;17.062;2023-02-01T02:54:33;3.80;1.00
18281;DHT22;9266;51.132;17.062;2023-02-01T02:57:17;3.80;99.90
18281;DHT22;9266;51.132;17.062;2023-02-01T03:00:05;3.30;1.00
18281;DHT22;9266;51.132;17.062;2023-02-01T03:02:51;4.00;1.00
18281;DHT22;9266;51.132;17.062;2023-02-01T03:05:37;4.00;1.00
18281;DHT22;9266;51.132;17.062;2023-02-01T03:08:13;4.00;23.50
18281;DHT22;9266;51.132;17.062;2023-02-01T03:10:54;4.00;1.00
18281;DHT22;9266;51.132;17.062;2023-02-01T03:13:29;4.00;1.00
18281;DHT22;9266;51.132;17.062;2023-02-01T03:16:01;3.90;1.00
18281;DHT22;9266;51.132;17.062;2023-02-01T03:18:33;3.90;1.00
18281;DHT22;9266;51.132;17.062;2023-02-01T03:21:08;3.80;1.00
18281;DHT22;9266;51.132;17.062;2023-02-01T03:23:38;4.00;99.90
18281;DHT22;9266;51.132;17.062;2023-02-01T03:26:07;3.80;99.90
18281;DHT22;9266;51.132;17.062;2023-02-01T03:33:31;3.70;99.90
18281;DHT22;9266;51.132;17.062;2023-02-01T03:36:05;3.70;1.00
18281;DHT22;9266;51.132;17.062;2023-02-01T03:38:40;3.70;1.00
18281;DHT22;9266;51.132;17.062;2023-02-01T03:41:15;3.80;1.00
18281;DHT22;9266;51.132;17.062;2023-02-01T03:43:51;3.80;1.00
18281;DHT22;9266;51.132;17.062;2023-02-01T03:46:25;3.70;1.00
18281;DHT22;9266;51.132;17.062;2023-02-01T03:49:00;3.60;1.00
18281;DHT22;9266;51.132;17.062;2023-02-01T03:51:29;3.60;1.00
18281;DHT22;9266;51.132;17.062;2023-02-01T03:53:59;3.50;1.00
18281;DHT22;9266;51.132;17.062;2023-02-01T03:56:29;3.50;1.00
18281;DHT22;9266;51.132;17.062;2023-02-01T04:01:27;3.40;1.00
18281;DHT22;9266;51.132;17.062;2023-02-01T04:06:22;3.40;1.00
18281;DHT22;9266;51.132;17.062;2023-02-01T04:08:49;3.30;1.00
18281;DHT22;9266;51.132;17.062;2023-02-01T04:11:18;3.40;99.90
18281;DHT22;9266;51.132;17.062;2023-02-01T04:26:04;3.40;99.90
18281;DHT22;9266;51.132;17.062;2023-02-01T04:28:33;3.40;99.90
18281;DHT22;9266;51.132;17.062;2023-02-01T04:35:55;3.40;99.90
18281;DHT22;9266;51.132;17.062;2023-02-01T04:43:17;3.50;88.80
18281;DHT22;9266;51.132;17.062;2023-02-01T04:45:49;3.50;14.30
18281;DHT22;9266;51.132;17.062;2023-02-01T04:48:18;3.50;1.00
18281;DHT22;9266;51.132;17.062;2023-02-01T04:50:46;3.80;1.00
18281;DHT22;9266;51.132;17.062;2023-02-01T05:03:05;4.10;1.00
18281;DHT22;9266;51.132;17.062;2023-02-01T05:12:54;4.10;99.90
18281;DHT22;9266;51.132;17.062;2023-02-01T05:18:08;4.20;99.90
18281;DHT22;9266;51.132;17.062;2023-02-01T05:32:52;4.50;35.50
18281;DHT22;9266;51.132;17.062;2023-02-01T05:35:21;4.50;1.00
18281;DHT22;9266;51.132;17.062;2023-02-01T05:37:48;4.50;1.00
18281;DHT22;9266;51.132;17.062;2023-02-01T05:45:10;4.30;30.70
18281;DHT22;9266;51.132;17.062;2023-02-01T05:50:06;4.10;73.60
18281;DHT22;9266;51.132;17.062;2023-02-01T05:52:34;4.20;52.10
18281;DHT22;9266;51.132;17.062;2023-02-01T06:02:24;4.30;23.60
18281;DHT22;9266;51.132;17.062;2023-02-01T06:09:47;4.30;17.20
18281;DHT22;9266;51.132;17.062;2023-02-01T06:19:36;4.60;1.00
18281;DHT22;9266;51.132;17.062;2023-02-01T06:27:00;4.70;1.00
18281;DHT22;9266;51.132;17.062;2023-02-01T06:31:55;4.80;1.00
18281;DHT22;9266;51.132;17.062;2023-02-01T06:34:22;4.80;1.00
18281;DHT22;9266;51.132;17.062;2023-02-01T06:36:50;4.70;1.00
18281;DHT22;9266;51.132;17.062;2023-02-01T06:39:17;4.70;1.00
18281;DHT22;9266;51.132;17.062;2023-02-01T06:41:46;4.80;1.00
18281;DHT22;9266;51.132;17.062;2023-02-01T06:44:15;4.70;1.00
18281;DHT22;9266;51.132;17.062;2023-02-01T06:46:42;4.70;1.00
18281;DHT22;9266;51.132;17.062;2023-02-01T06:51:36;4.90;1.00
18281;DHT22;9266;51.132;17.062;2023-02-01T06:54:04;4.90;1.00
18281;DHT22;9266;51.132;17.062;2023-02-01T07:03:54;5.00;1.00
18281;DHT22;9266;51.132;17.062;2023-02-01T07:06:21;5.00;1.00
18281;DHT22;9266;51.132;17.062;2023-02-01T07:08:49;4.90;1.00
18281;DHT22;9266;51.132;17.062;2023-02-01T07:11:17;4.90;1.00
18281;DHT22;9266;51.132;17.062;2023-02-01T07:13:45;5.00;1.00
18281;DHT22;9266;51.132;17.062;2023-02-01T07:16:14;4.90;1.00
18281;DHT22;9266;51.132;17.062;2023-02-01T07:18:43;4.90;1.00
18281;DHT22;9266;51.132;17.062;2023-02-01T07:21:11;4.80;1.00
18281;DHT22;9266;51.132;17.062;2023-02-01T07:23:38;4.90;1.00
18281;DHT22;9266;51.132;17.062;2023-02-01T07:26:07;4.90;1.00
18281;DHT22;9266;51.132;17.062;2023-02-01T07:31:03;5.00;1.00
18281;DHT22;9266;51.132;17.062;2023-02-01T07:33:32;4.90;1.00
18281;DHT22;9266;51.132;17.062;2023-02-01T07:36:03;4.90;1.00
18281;DHT22;9266;51.132;17.062;2023-02-01T07:40:58;7.90;1.00
18281;DHT22;9266;51.132;17.062;2023-02-01T07:45:54;5.00;1.00
18281;DHT22;9266;51.132;17.062;2023-02-01T07:48:22;5.00;1.00
18281;DHT22;9266;51.132;17.062;2023-02-01T07:50:57;5.10;1.00
18281;DHT22;9266;51.132;17.062;2023-02-01T07:53:27;5.10;1.00
18281;DHT22;9266;51.132;17.062;2023-02-01T08:06:02;5.30;1.00
18281;DHT22;9266;51.132;17.062;2023-02-01T08:08:31;5.20;1.00
18281;DHT22;9266;51.132;17.062;2023-02-01T08:15:57;5.30;1.00
18281;DHT22;9266;51.132;17.062;2023-02-01T08:35:39;5.80;1.00
18281;DHT22;9266;51.132;17.062;2023-02-01T08:43:02;5.80;1.00
18281;DHT22;9266;51.132;17.062;2023-02-01T08:47:57;5.80;1.00
18281;DHT22;9266;51.132;17.062;2023-02-01T08:50:24;5.80;1.00
18281;DHT22;9266;51.132;17.062;2023-02-01T08:52:52;5.70;1.00
18281;DHT22;9266;51.132;17.062;2023-02-01T08:55:20;5.80;1.00
18281;DHT22;9266;51.132;17.062;2023-02-01T08:57:47;5.70;1.00
18281;DHT22;9266;51.132;17.062;2023-02-01T09:00:17;8.20;1.00
18281;DHT22;9266;51.132;17.062;2023-02-01T09:10:10;5.30;99.90
18281;DHT22;9266;51.132;17.062;2023-02-01T09:12:37;5.30;99.90
18281;DHT22;9266;51.132;17.062;2023-02-01T09:15:06;5.10;1.00
18281;DHT22;9266;51.132;17.062;2023-02-01T09:17:35;5.00;1.00
18281;DHT22;9266;51.132;17.062;2023-02-01T09:20:03;4.90;1.00
18281;DHT22;9266;51.132;17.062;2023-02-01T09:22:30;5.20;1.00
18281;DHT22;9266;51.132;17.062;2023-02-01T09:29:52;5.40;99.90
18281;DHT22;9266;51.132;17.062;2023-02-01T09:32:19;5.40;99.90
18281;DHT22;9266;51.132;17.062;2023-02-01T09:34:49;5.50;99.90
18281;DHT22;9266;51.132;17.062;2023-02-01T09:37:16;5.60;99.90
18281;DHT22;9266;51.132;17.062;2023-02-01T09:39:43;5.70;99.90
18281;DHT22;9266;51.132;17.062;2023-02-01T09:42:24;5.70;99.90
18281;DHT22;9266;51.132;17.062;2023-02-01T09:45:15;5.90;38.10
18281;DHT22;9266;51.132;17.062;2023-02-01T09:47:48;5.60;73.10
18281;DHT22;9266;51.132;17.062;2023-02-01T09:50:21;6.00;1.00
18281;DHT22;9266;51.132;17.062;2023-02-01T09:55:25;6.00;1.00
18281;DHT22;9266;51.132;17.062;2023-02-01T09:57:58;6.00;1.00
18281;DHT22;9266;51.132;17.062;2023-02-01T10:00:29;5.90;1.00
18281;DHT22;9266;51.132;17.062;2023-02-01T10:02:57;5.90;1.00
18281;DHT22;9266;51.132;17.062;2023-02-01T10:05:51;6.00;1.00
18281;DHT22;9266;51.132;17.062;2023-02-01T10:08:26;6.10;1.00
18281;DHT22;9266;51.132;17.062;2023-02-01T10:11:02;6.10;1.00
18281;DHT22;9266;51.132;17.062;2023-02-01T10:13:45;6.10;1.00
18281;DHT22;9266;51.132;17.062;2023-02-01T10:16:23;6.20;1.00
18281;DHT22;9266;51.132;17.062;2023-02-01T10:21:53;6.10;1.00
18281;DHT22;9266;51.132;17.062;2023-02-01T10:24:37;6.00;1.00
18281;DHT22;9266;51.132;17.062;2023-02-01T10:27:14;6.00;1.00
18281;DHT22;9266;51.132;17.062;2023-02-01T10:29:45;6.10;1.00
18281;DHT22;9266;51.132;17.062;2023-02-01T10:32:19;6.20;1.00
18281;DHT22;9266;51.132;17.062;2023-02-01T10:34:51;6.20;1.00
18281;DHT22;9266;51.132;17.062;2023-02-01T10:37:26;6.20;1.00
18281;DHT22;9266;51.132;17.062;2023-02-01T10:39:55;6.20;1.00
18281;DHT22;9266;51.132;17.062;2023-02-01T10:42:26;6.20;1.00
18281;DHT22;9266;51.132;17.062;2023-02-01T10:44:54;6.20;1.00
18281;DHT22;9266;51.132;17.062;2023-02-01T10:49:55;6.10;1.00
18281;DHT22;9266;51.132;17.062;2023-02-01T10:52:36;6.10;1.00
18281;DHT22;9266;51.132;17.062;2023-02-01T10:55:29;6.10;1.00
18281;DHT22;9266;51.132;17.062;2023-02-01T10:57:57;6.10;1.00
18281;DHT22;9266;51.132;17.062;2023-02-01T11:00:25;6.10;1.00
18281;DHT22;9266;51.132;17.062;2023-02-01T11:05:22;6.70;1.00
18281;DHT22;9266;51.132;17.062;2023-02-01T11:07:53;6.00;1.00
18281;DHT22;9266;51.132;17.062;2023-02-01T11:10:38;5.90;1.00
18281;DHT22;9266;51.132;17.062;2023-02-01T11:13:13;5.70;99.90
18281;DHT22;9266;51.132;17.062;2023-02-01T11:15:43;5.70;99.90
18281;DHT22;9266;51.132;17.062;2023-02-01T11:18:16;5.70;99.90
18281;DHT22;9266;51.132;17.062;2023-02-01T11:20:45;5.60;99.90
18281;DHT22;9266;51.132;17.062;2023-02-01T11:25:52;5.60;99.90
18281;DHT22;9266;51.132;17.062;2023-02-01T11:28:23;5.50;1.00
18281;DHT22;9266;51.132;17.062;2023-02-01T11:30:52;5.40;1.00
18281;DHT22;9266;51.132;17.062;2023-02-01T11:33:25;5.40;1.00
18281;DHT22;9266;51.132;17.062;2023-02-01T11:35:56;5.40;1.00
18281;DHT22;9266;51.132;17.062;2023-02-01T11:38:28;5.40;1.00
18281;DHT22;9266;51.132;17.062;2023-02-01T11:43:26;5.40;1.00
18281;DHT22;9266;51.132;17.062;2023-02-01T11:45:55;5.40;1.00
18281;DHT22;9266;51.132;17.062;2023-02-01T11:48:24;5.50;1.00
18281;DHT22;9266;51.132;17.062;2023-02-01T11:51:01;5.70;1.00
18281;DHT22;9266;51.132;17.062;2023-02-01T11:53:46;5.70;1.00
18281;DHT22;9266;51.132;17.062;2023-02-01T11:56:22;5.50;1.00
18281;DHT22;9266;51.132;17.062;2023-02-01T11:59:16;5.40;99.90
18281;DHT22;9266;51.132;17.062;2023-02-01T12:02:09;5.30;99.90
18281;DHT22;9266;51.132;17.062;2023-02-01T12:07:48;5.10;1.00
18281;DHT22;9266;51.132;17.062;2023-02-01T12:10:28;5.00;99.90
18281;DHT22;9266;51.132;17.062;2023-02-01T12:13:08;5.00;1.00
18281;DHT22;9266;51.132;17.062;2023-02-01T12:15:50;5.30;1.00
18281;DHT22;9266;51.132;17.062;2023-02-01T12:18:50;5.00;1.00
18281;DHT22;9266;51.132;17.062;2023-02-01T12:21:33;5.00;1.00
18281;DHT22;9266;51.132;17.062;2023-02-01T12:24:21;5.00;1.00
18281;DHT22;9266;51.132;17.062;2023-02-01T12:27:04;5.00;1.00
18281;DHT22;9266;51.132;17.062;2023-02-01T12:29:47;5.20;99.90
18281;DHT22;9266;51.132;17.062;2023-02-01T12:32:37;5.30;89.80
18281;DHT22;9266;51.132;17.062;2023-02-01T12:35:38;5.40;1.00
18281;DHT22;9266;51.132;17.062;2023-02-01T12:38:29;5.50;1.00
18281;DHT22;9266;51.132;17.062;2023-02-01T12:41:21;5.50;1.00
18281;DHT22;9266;51.132;17.062;2023-02-01T12:46:27;5.40;1.00
18281;DHT22;9266;51.132;17.062;2023-02-01T12:49:01;5.30;99.90
18281;DHT22;9266;51.132;17.062;2023-02-01T12:51:34;5.20;99.90
18281;DHT22;9266;51.132;17.062;2023-02-01T12:54:05;5.20;99.90
18281;DHT22;9266;51.132;17.062;2023-02-01T12:56:37;5.20;27.10
18281;DHT22;9266;51.132;17.062;2023-02-01T12:59:19;5.20;99.90
18281;DHT22;9266;51.132;17.062;2023-02-01T13:01:53;5.10;99.90
18281;DHT22;9266;51.132;17.062;2023-02-01T13:04:29;5.10;1.00
18281;DHT22;9266;51.132;17.062;2023-02-01T13:07:04;5.10;99.90
18281;DHT22;9266;51.132;17.062;2023-02-01T13:09:39;5.20;1.00
18281;DHT22;9266;51.132;17.062;2023-02-01T13:14:44;5.20;1.00
18281;DHT22;9266;51.132;17.062;2023-02-01T13:17:15;5.10;1.00
18281;DHT22;9266;51.132;17.062;2023-02-01T13:22:17;5.10;99.90
18281;DHT22;9266;51.132;17.062;2023-02-01T13:24:48;5.00;1.00
18281;DHT22;9266;51.132;17.062;2023-02-01T13:27:17;5.00;1.00
18281;DHT22;9266;51.132;17.062;2023-02-01T13:29:53;5.10;99.90
18281;DHT22;9266;51.132;17.062;2023-02-01T13:32:39;5.10;1.00
18281;DHT22;9266;51.132;17.062;2023-02-01T13:38:53;5.40;1.00
18281;DHT22;9266;51.132;17.062;2023-02-01T13:41:27;5.30;1.00
18281;DHT22;9266;51.132;17.062;2023-02-01T13:43:57;5.30;1.00
18281;DHT22;9266;51.132;17.062;2023-02-01T13:46:27;5.20;1.00
18281;DHT22;9266;51.132;17.062;2023-02-01T13:51:43;5.30;56.20
18281;DHT22;9266;51.132;17.062;2023-02-01T13:54:26;5.20;1.00
18281;DHT22;9266;51.132;17.062;2023-02-01T13:56:54;5.20;99.90
18281;DHT22;9266;51.132;17.062;2023-02-01T13:59:50;5.40;99.90
18281;DHT22;9266;51.132;17.062;2023-02-01T14:02:46;5.50;1.00
18281;DHT22;9266;51.132;17.062;2023-02-01T14:10:50;5.90;1.00
18281;DHT22;9266;51.132;17.062;2023-02-01T14:13:27;5.90;1.00
18281;DHT22;9266;51.132;17.062;2023-02-01T14:16:21;4.70;1.00
18281;DHT22;9266;51.132;17.062;2023-02-01T14:19:08;5.50;1.00
18281;DHT22;9266;51.132;17.062;2023-02-01T14:21:47;5.30;1.00
18281;DHT22;9266;51.132;17.062;2023-02-01T14:24:22;5.10;99.90
18281;DHT22;9266;51.132;17.062;2023-02-01T14:26:51;5.00;1.00
18281;DHT22;9266;51.132;17.062;2023-02-01T14:29:29;4.80;1.00
18281;DHT22;9266;51.132;17.062;2023-02-01T14:32:03;4.90;1.00
18281;DHT22;9266;51.132;17.062;2023-02-01T14:34:36;4.90;1.00
18281;DHT22;9266;51.132;17.062;2023-02-01T14:37:11;4.90;1.00
18281;DHT22;9266;51.132;17.062;2023-02-01T14:39:54;4.80;99.90
18281;DHT22;9266;51.132;17.062;2023-02-01T14:42:25;4.90;99.90
18281;DHT22;9266;51.132;17.062;2023-02-01T14:44:55;5.00;99.90
18281;DHT22;9266;51.132;17.062;2023-02-01T14:50:03;5.10;1.00
18281;DHT22;9266;51.132;17.062;2023-02-01T14:52:33;5.00;1.00
18281;DHT22;9266;51.132;17.062;2023-02-01T14:55:04;4.90;1.00
18281;DHT22;9266;51.132;17.062;2023-02-01T14:57:36;4.80;1.00
18281;DHT22;9266;51.132;17.062;2023-02-01T15:00:17;4.80;99.90
18281;DHT22;9266;51.132;17.062;2023-02-01T15:02:46;4.90;99.90
18281;DHT22;9266;51.132;17.062;2023-02-01T15:05:25;4.90;99.90
18281;DHT22;9266;51.132;17.062;2023-02-01T15:07:55;5.00;40.60
18281;DHT22;9266;51.132;17.062;2023-02-01T15:10:24;4.90;1.00
18281;DHT22;9266;51.132;17.062;2023-02-01T15:15:20;5.00;99.90
18281;DHT22;9266;51.132;17.062;2023-02-01T15:17:53;4.90;99.90
18281;DHT22;9266;51.132;17.062;2023-02-01T15:20:23;4.80;1.00
18281;DHT22;9266;51.132;17.062;2023-02-01T15:22:58;4.80;99.90
18281;DHT22;9266;51.132;17.062;2023-02-01T15:25:27;4.80;99.90
18281;DHT22;9266;51.132;17.062;2023-02-01T15:27:55;4.90;99.90
18281;DHT22;9266;51.132;17.062;2023-02-01T15:30:25;4.90;1.00
18281;DHT22;9266;51.132;17.062;2023-02-01T15:33:04;4.90;1.00
18281;DHT22;9266;51.132;17.062;2023-02-01T15:35:38;4.90;1.00
18281;DHT22;9266;51.132;17.062;2023-02-01T15:38:37;5.00;1.00
18281;DHT22;9266;51.132;17.062;2023-02-01T15:41:11;5.00;1.00
18281;DHT22;9266;51.132;17.062;2023-02-01T15:43:42;4.90;1.00
18281;DHT22;9266;51.132;17.062;2023-02-01T15:46:12;5.00;1.00
18281;DHT22;9266;51.132;17.062;2023-02-01T15:48:44;5.00;1.00
18281;DHT22;9266;51.132;17.062;2023-02-01T15:51:18;5.00;1.00
18281;DHT22;9266;51.132;17.062;2023-02-01T15:53:48;5.00;1.00
18281;DHT22;9266;51.132;17.062;2023-02-01T15:56:22;4.80;1.00
18281;DHT22;9266;51.132;17.062;2023-02-01T15:58:52;4.90;1.00
18281;DHT22;9266;51.132;17.062;2023-02-01T16:06:30;4.80;1.00
18281;DHT22;9266;51.132;17.062;2023-02-01T16:09:10;4.80;1.00
18281;DHT22;9266;51.132;17.062;2023-02-01T16:11:47;4.70;1.00
18281;DHT22;9266;51.132;17.062;2023-02-01T16:19:10;4.50;1.00
18281;DHT22;9266;51.132;17.062;2023-02-01T16:21:39;4.40;1.00
18281;DHT22;9266;51.132;17.062;2023-02-01T16:29:04;4.40;1.00
18281;DHT22;9266;51.132;17.062;2023-02-01T16:31:34;4.50;99.90
18281;DHT22;9266;51.132;17.062;2023-02-01T16:36:31;4.60;99.90
18281;DHT22;9266;51.132;17.062;2023-02-01T16:38:59;4.60;99.90
18281;DHT22;9266;51.132;17.062;2023-02-01T16:41:28;4.50;99.90
18281;DHT22;9266;51.132;17.062;2023-02-01T16:43:55;4.50;99.90
18281;DHT22;9266;51.132;17.062;2023-02-01T16:46:24;4.50;1.00
18281;DHT22;9266;51.132;17.062;2023-02-01T16:48:54;4.50;1.00
18281;DHT22;9266;51.132;17.062;2023-02-01T16:51:22;4.50;1.00
18281;DHT22;9266;51.132;17.062;2023-02-01T16:56:28;4.40;1.00
18281;DHT22;9266;51.132;17.062;2023-02-01T17:03:50;4.20;1.00
18281;DHT22;9266;51.132;17.062;2023-02-01T17:06:19;4.20;1.00
18281;DHT22;9266;51.132;17.062;2023-02-01T17:08:50;4.10;99.90
18281;DHT22;9266;51.132;17.062;2023-02-01T17:11:20;4.00;99.90
18281;DHT22;9266;51.132;17.062;2023-02-01T17:13:47;4.40;99.90
18281;DHT22;9266;51.132;17.062;2023-02-01T17:18:54;4.20;99.90
18281;DHT22;9266;51.132;17.062;2023-02-01T17:26:20;4.10;1.00
18281;DHT22;9266;51.132;17.062;2023-02-01T17:31:15;3.70;1.00
18281;DHT22;9266;51.132;17.062;2023-02-01T17:33:42;3.70;1.00
18281;DHT22;9266;51.132;17.062;2023-02-01T17:36:14;3.70;99.90
18281;DHT22;9266;51.132;17.062;2023-02-01T17:38:41;3.70;99.90
18281;DHT22;9266;51.132;17.062;2023-02-01T17:41:13;3.70;99.90
18281;DHT22;9266;51.132;17.062;2023-02-01T17:43:44;3.80;1.00
18281;DHT22;9266;51.132;17.062;2023-02-01T17:46:12;3.80;1.00
18281;DHT22;9266;51.132;17.062;2023-02-01T17:48:40;4.00;1.00
18281;DHT22;9266;51.132;17.062;2023-02-01T17:53:41;3.90;1.00
18281;DHT22;9266;51.132;17.062;2023-02-01T17:56:13;3.80;1.00
18281;DHT22;9266;51.132;17.062;2023-02-01T18:01:13;4.00;99.90
18281;DHT22;9266;51.132;17.062;2023-02-01T18:03:40;4.20;1.00
18281;DHT22;9266;51.132;17.062;2023-02-01T18:06:12;4.20;1.00
18281;DHT22;9266;51.132;17.062;2023-02-01T18:11:12;4.30;1.00
18281;DHT22;9266;51.132;17.062;2023-02-01T18:16:16;4.60;1.00
18281;DHT22;9266;51.132;17.062;2023-02-01T18:18:44;4.60;1.00
18281;DHT22;9266;51.132;17.062;2023-02-01T18:21:11;4.60;1.00
18281;DHT22;9266;51.132;17.062;2023-02-01T18:23:39;4.60;1.00
18281;DHT22;9266;51.132;17.062;2023-02-01T18:26:09;4.50;1.00
18281;DHT22;9266;51.132;17.062;2023-02-01T18:28:36;4.50;97.30
18281;DHT22;9266;51.132;17.062;2023-02-01T18:31:05;4.50;1.00
18281;DHT22;9266;51.132;17.062;2023-02-01T18:33:33;4.50;1.00
18281;DHT22;9266;51.132;17.062;2023-02-01T18:40:55;4.40;1.00
18281;DHT22;9266;51.132;17.062;2023-02-01T18:43:25;4.50;99.90
18281;DHT22;9266;51.132;17.062;2023-02-01T18:45:52;4.40;1.00
18281;DHT22;9266;51.132;17.062;2023-02-01T18:48:20;4.30;1.00
18281;DHT22;9266;51.132;17.062;2023-02-01T18:50:49;4.10;99.90
18281;DHT22;9266;51.132;17.062;2023-02-01T18:55:52;4.20;99.90
18281;DHT22;9266;51.132;17.062;2023-02-01T19:03:18;4.20;1.00
18281;DHT22;9266;51.132;17.062;2023-02-01T19:05:49;4.30;1.00
18281;DHT22;9266;51.132;17.062;2023-02-01T19:13:11;4.30;99.90
18281;DHT22;9266;51.132;17.062;2023-02-01T19:18:07;4.40;1.00
18281;DHT22;9266;51.132;17.062;2023-02-01T19:20:37;4.40;1.00
18281;DHT22;9266;51.132;17.062;2023-02-01T19:23:07;4.30;99.90
18281;DHT22;9266;51.132;17.062;2023-02-01T19:28:02;4.40;1.00
18281;DHT22;9266;51.132;17.062;2023-02-01T19:37:53;4.30;1.00
18281;DHT22;9266;51.132;17.062;2023-02-01T19:40:22;4.70;1.00
18281;DHT22;9266;51.132;17.062;2023-02-01T19:42:51;4.80;1.00
18281;DHT22;9266;51.132;17.062;2023-02-01T19:46:27;4.60;99.90
18281;DHT22;9266;51.132;17.062;2023-02-01T19:48:54;4.70;99.90
18281;DHT22;9266;51.132;17.062;2023-02-01T19:51:21;4.70;99.90
18281;DHT22;9266;51.132;17.062;2023-02-01T19:53:48;4.80;1.00
18281;DHT22;9266;51.132;17.062;2023-02-01T19:56:15;4.80;1.00
18281;DHT22;9266;51.132;17.062;2023-02-01T19:58:43;4.80;1.00
18281;DHT22;9266;51.132;17.062;2023-02-01T20:01:10;4.80;1.00
18281;DHT22;9266;51.132;17.062;2023-02-01T20:03:39;4.80;1.00
18281;DHT22;9266;51.132;17.062;2023-02-01T20:06:06;4.70;88.10
18281;DHT22;9266;51.132;17.062;2023-02-01T20:08:33;4.60;1.00
18281;DHT22;9266;51.132;17.062;2023-02-01T20:11:01;4.30;99.90
18281;DHT22;9266;51.132;17.062;2023-02-01T20:13:28;4.20;1.00
18281;DHT22;9266;51.132;17.062;2023-02-01T20:15:56;4.20;1.00
18281;DHT22;9266;51.132;17.062;2023-02-01T20:18:24;4.10;1.00
18281;DHT22;9266;51.132;17.062;2023-02-01T20:20:56;3.90;1.00
18281;DHT22;9266;51.132;17.062;2023-02-01T20:45:38;3.10;99.90
18281;DHT22;9266;51.132;17.062;2023-02-01T20:55:30;3.00;1.00
18281;DHT22;9266;51.132;17.062;2023-02-01T20:57:57;2.90;1.00
18281;DHT22;9266;51.132;17.062;2023-02-01T21:00:24;2.90;1.00
18281;DHT22;9266;51.132;17.062;2023-02-01T21:05:20;2.90;1.00
18281;DHT22;9266;51.132;17.062;2023-02-01T21:07:47;2.80;99.90
18281;DHT22;9266;51.132;17.062;2023-02-01T21:10:15;2.90;99.90
18281;DHT22;9266;51.132;17.062;2023-02-01T21:12:43;2.80;99.90
18281;DHT22;9266;51.132;17.062;2023-02-01T21:15:10;2.70;99.90
18281;DHT22;9266;51.132;17.062;2023-02-01T21:20:06;2.70;99.90
18281;DHT22;9266;51.132;17.062;2023-02-01T21:25:01;2.80;99.90
18281;DHT22;9266;51.132;17.062;2023-02-01T21:29:57;2.70;99.90
18281;DHT22;9266;51.132;17.062;2023-02-01T21:39:50;2.80;99.90
18281;DHT22;9266;51.132;17.062;2023-02-01T21:42:17;2.80;99.90
18281;DHT22;9266;51.132;17.062;2023-02-01T21:44:46;2.80;99.90
18281;DHT22;9266;51.132;17.062;2023-02-01T21:47:17;2.70;99.90
18281;DHT22;9266;51.132;17.062;2023-02-01T21:49:45;2.60;99.90
18281;DHT22;9266;51.132;17.062;2023-02-01T21:52:12;2.70;99.90
18281;DHT22;9266;51.132;17.062;2023-02-01T21:57:08;2.60;99.90
18281;DHT22;9266;51.132;17.062;2023-02-01T21:59:37;2.70;99.90
18281;DHT22;9266;51.132;17.062;2023-02-01T22:11:56;2.90;99.90
18281;DHT22;9266;51.132;17.062;2023-02-01T22:14:23;2.80;99.90
18281;DHT22;9266;51.132;17.062;2023-02-01T22:21:47;3.00;99.90
18281;DHT22;9266;51.132;17.062;2023-02-01T22:24:17;2.90;99.90
18281;DHT22;9266;51.132;17.062;2023-02-01T22:39:05;3.20;99.90
18281;DHT22;9266;51.132;17.062;2023-02-01T22:46:28;3.10;99.90
18281;DHT22;9266;51.132;17.062;2023-02-01T22:48:56;3.20;99.90
18281;DHT22;9266;51.132;17.062;2023-02-01T22:51:26;3.20;99.90
18281;DHT22;9266;51.132;17.062;2023-02-01T22:53:53;3.30;99.90
18281;DHT22;9266;51.132;17.062;2023-02-01T22:56:25;3.30;99.90
18281;DHT22;9266;51.132;17.062;2023-02-01T22:58:56;3.30;99.90
18281;DHT22;9266;51.132;17.062;2023-02-01T23:01:23;3.40;99.90
18281;DHT22;9266;51.132;17.062;2023-02-01T23:03:54;3.40;99.90
18281;DHT22;9266;51.132;17.062;2023-02-01T23:11:15;3.60;99.90
18281;DHT22;9266;51.132;17.062;2023-02-01T23:13:44;3.50;99.90
18281;DHT22;9266;51.132;17.062;2023-02-01T23:26:04;3.50;99.90
18281;DHT22;9266;51.132;17.062;2023-02-01T23:31:05;3.60;99.90
18281;DHT22;9266;51.132;17.062;2023-02-01T23:40:57;3.80;99.90
18281;DHT22;9266;51.132;17.062;2023-02-01T23:46:11;3.70;99.90
18281;DHT22;9266;51.132;17.062;2023-02-01T23:51:08;3.70;99.90
18281;DHT22;9266;51.132;17.062;2023-02-01T23:56:03;3.60;99.90
18281;DHT22;9266;51.132;17.062;2023-02-01T23:58:30;3.60;99.90
